createdAt,value
2019-03-19T00:00:20.333Z,41.00
2019-03-19T00:02:48.955Z,40.90
2019-03-19T00:05:17.617Z,40.90
2019-03-19T00:07:46.186Z,41.00
2019-03-19T00:10:14.940Z,40.90
2019-03-19T00:12:43.505Z,40.90
2019-03-19T00:15:12.764Z,40.90
2019-03-19T00:17:41.353Z,40.90
2019-03-19T00:20:14.413Z,40.90
2019-03-19T00:22:43.253Z,40.90
2019-03-19T00:25:12.185Z,40.90
2019-03-19T00:27:40.766Z,40.90
2019-03-19T00:30:12.426Z,40.80
2019-03-19T00:32:41.119Z,40.80
2019-03-19T00:35:10.005Z,40.80
2019-03-19T00:37:38.712Z,40.80
2019-03-19T00:40:09.962Z,40.90
2019-03-19T00:42:38.551Z,40.90
2019-03-19T00:45:09.894Z,40.80
2019-03-19T00:47:38.529Z,41.00
2019-03-19T00:50:12.031Z,40.90
2019-03-19T00:52:40.617Z,41.50
2019-03-19T00:55:09.441Z,40.90
2019-03-19T00:57:38.034Z,40.90
2019-03-19T01:00:15.328Z,40.90
2019-03-19T01:02:43.897Z,41.00
2019-03-19T01:05:13.033Z,41.00
2019-03-19T01:07:41.675Z,41.00
2019-03-19T01:10:17.623Z,41.00
2019-03-19T01:12:46.718Z,41.00
2019-03-19T01:15:15.904Z,41.00
2019-03-19T01:17:44.471Z,41.00
2019-03-19T01:20:15.232Z,41.00
2019-03-19T01:22:43.788Z,41.00
2019-03-19T01:25:12.575Z,41.00
2019-03-19T01:27:41.159Z,41.00
2019-03-19T01:30:14.482Z,41.00
2019-03-19T01:32:43.133Z,41.00
2019-03-19T01:35:11.834Z,41.00
2019-03-19T01:37:40.434Z,41.60
2019-03-19T01:40:11.736Z,41.00
2019-03-19T01:42:40.630Z,41.10
2019-03-19T01:45:13.818Z,41.00
2019-03-19T01:47:42.452Z,41.10
2019-03-19T01:50:15.330Z,41.10
2019-03-19T01:52:43.980Z,41.20
2019-03-19T01:55:15.567Z,41.00
2019-03-19T01:57:43.389Z,41.00
2019-03-19T02:00:17.050Z,41.00
2019-03-19T02:02:45.614Z,41.00
2019-03-19T02:05:14.635Z,41.10
2019-03-19T02:07:43.277Z,41.00
2019-03-19T02:10:15.238Z,41.00
2019-03-19T02:12:43.886Z,41.00
2019-03-19T02:15:15.559Z,41.00
2019-03-19T02:17:44.368Z,41.00
2019-03-19T02:20:14.696Z,41.00
2019-03-19T02:22:43.330Z,41.00
2019-03-19T02:25:12.089Z,41.00
2019-03-19T02:27:40.697Z,41.00
2019-03-19T02:30:16.203Z,41.00
2019-03-19T02:32:44.797Z,41.00
2019-03-19T02:35:13.484Z,41.00
2019-03-19T02:37:42.217Z,41.40
2019-03-19T02:40:12.547Z,41.00
2019-03-19T02:42:41.265Z,41.00
2019-03-19T02:45:12.542Z,41.00
2019-03-19T02:47:41.134Z,41.00
2019-03-19T02:50:17.549Z,41.00
2019-03-19T02:52:46.273Z,41.00
2019-03-19T02:55:14.891Z,41.00
2019-03-19T02:57:43.643Z,41.00
2019-03-19T03:00:14.690Z,41.00
2019-03-19T03:02:43.470Z,41.00
2019-03-19T03:05:20.068Z,41.00
2019-03-19T03:07:48.900Z,41.10
2019-03-19T03:10:17.548Z,41.00
2019-03-19T03:12:46.218Z,41.00
2019-03-19T03:15:15.358Z,41.00
2019-03-19T03:17:44.040Z,41.00
2019-03-19T03:20:13.789Z,41.00
2019-03-19T03:22:42.522Z,41.00
2019-03-19T03:25:16.740Z,41.00
2019-03-19T03:27:45.300Z,41.00
2019-03-19T03:30:15.843Z,41.00
2019-03-19T03:32:44.496Z,41.00
2019-03-19T03:35:13.409Z,41.00
2019-03-19T03:37:42.075Z,41.00
2019-03-19T03:40:14.957Z,41.00
2019-03-19T03:42:43.789Z,41.00
2019-03-19T03:45:17.163Z,41.00
2019-03-19T03:47:45.848Z,41.00
2019-03-19T03:50:16.382Z,41.00
2019-03-19T03:52:45.050Z,41.00
2019-03-19T03:55:14.772Z,41.00
2019-03-19T03:57:43.370Z,41.00
2019-03-19T04:00:14.755Z,41.00
2019-03-19T04:02:44.836Z,41.00
2019-03-19T04:05:13.927Z,41.10
2019-03-19T04:07:42.681Z,41.00
2019-03-19T04:10:13.353Z,41.00
2019-03-19T04:12:42.126Z,41.00
2019-03-19T04:15:14.745Z,41.00
2019-03-19T04:17:43.411Z,41.00
2019-03-19T04:20:16.089Z,41.10
2019-03-19T04:22:44.849Z,41.00
2019-03-19T04:25:13.952Z,41.00
2019-03-19T04:27:42.692Z,41.00
2019-03-19T04:30:19.136Z,41.00
2019-03-19T04:32:47.805Z,41.60
2019-03-19T04:35:16.517Z,41.50
2019-03-19T04:37:45.183Z,41.00
2019-03-19T04:40:17.064Z,41.00
2019-03-19T04:42:45.831Z,41.00
2019-03-19T04:45:15.342Z,41.10
2019-03-19T04:47:43.925Z,41.00
2019-03-19T04:50:13.635Z,40.60
2019-03-19T04:52:42.393Z,41.10
2019-03-19T04:55:13.036Z,41.30
2019-03-19T04:57:41.697Z,41.80
2019-03-19T05:00:18.078Z,41.50
2019-03-19T05:02:46.920Z,41.40
2019-03-19T05:05:15.757Z,41.30
2019-03-19T05:07:44.506Z,41.30
2019-03-19T05:10:14.422Z,41.30
2019-03-19T05:12:43.088Z,41.30
2019-03-19T05:15:11.943Z,41.30
2019-03-19T05:17:40.609Z,41.30
2019-03-19T05:20:12.136Z,41.30
2019-03-19T05:22:40.694Z,41.30
2019-03-19T05:25:10.619Z,41.40
2019-03-19T05:27:39.257Z,41.30
2019-03-19T05:30:16.208Z,41.30
2019-03-19T05:32:44.899Z,41.30
2019-03-19T05:35:13.535Z,41.30
2019-03-19T05:37:42.181Z,41.30
2019-03-19T05:40:15.061Z,41.40
2019-03-19T05:42:43.796Z,41.30
2019-03-19T05:45:13.731Z,41.20
2019-03-19T05:47:42.431Z,41.30
2019-03-19T05:50:16.066Z,41.20
2019-03-19T05:52:44.766Z,41.20
2019-03-19T05:55:13.510Z,41.20
2019-03-19T05:57:49.458Z,41.30
2019-03-19T06:00:14.420Z,41.20
2019-03-19T06:02:42.994Z,41.30
2019-03-19T06:05:12.633Z,41.30
2019-03-19T06:07:41.279Z,41.30
2019-03-19T06:10:11.407Z,41.30
2019-03-19T06:12:40.140Z,41.40
2019-03-19T06:15:16.255Z,41.30
2019-03-19T06:17:44.913Z,41.30
2019-03-19T06:20:15.501Z,41.30
2019-03-19T06:22:44.338Z,41.30
2019-03-19T06:25:13.575Z,41.30
2019-03-19T06:27:42.149Z,41.40
2019-03-19T06:30:18.794Z,41.30
2019-03-19T06:32:47.606Z,41.30
2019-03-19T06:35:16.740Z,41.30
2019-03-19T06:37:45.453Z,41.20
2019-03-19T06:40:16.051Z,41.20
2019-03-19T06:42:44.705Z,41.20
2019-03-19T06:45:14.998Z,41.20
2019-03-19T06:47:43.637Z,41.20
2019-03-19T06:50:20.250Z,41.20
2019-03-19T06:52:48.906Z,41.20
2019-03-19T06:55:19.040Z,41.20
2019-03-19T06:57:48.056Z,41.20
2019-03-19T07:00:18.385Z,41.20
2019-03-19T07:02:46.965Z,41.20
2019-03-19T07:05:16.992Z,41.20
2019-03-19T07:07:45.701Z,41.20
2019-03-19T07:10:15.552Z,41.20
2019-03-19T07:12:44.315Z,41.10
2019-03-19T07:15:18.846Z,41.10
2019-03-19T07:17:47.861Z,41.20
2019-03-19T07:20:26.926Z,41.20
2019-03-19T07:22:55.495Z,41.20
2019-03-19T07:25:24.246Z,41.20
2019-03-19T07:27:52.819Z,41.20
2019-03-19T07:30:24.494Z,41.20
2019-03-19T07:32:53.194Z,41.10
2019-03-19T07:35:22.047Z,41.20
2019-03-19T07:37:50.608Z,41.20
2019-03-19T07:40:19.268Z,41.20
2019-03-19T07:42:47.853Z,41.10
2019-03-19T07:45:17.874Z,41.20
2019-03-19T07:47:47.097Z,41.20
2019-03-19T07:50:20.002Z,41.20
2019-03-19T07:52:48.659Z,41.10
2019-03-19T07:55:17.701Z,41.20
2019-03-19T07:57:46.341Z,41.20
2019-03-19T08:00:16.877Z,41.20
2019-03-19T08:02:45.810Z,41.20
2019-03-19T08:05:14.463Z,41.20
2019-03-19T08:07:43.103Z,41.20
2019-03-19T08:10:19.300Z,41.20
2019-03-19T08:12:48.018Z,41.30
2019-03-19T08:15:17.461Z,41.20
2019-03-19T08:17:46.043Z,41.20
2019-03-19T08:20:15.794Z,41.20
2019-03-19T08:22:44.440Z,41.20
2019-03-19T08:25:13.970Z,41.20
2019-03-19T08:27:42.794Z,41.20
2019-03-19T08:30:18.804Z,41.20
2019-03-19T08:32:47.402Z,41.30
2019-03-19T08:35:16.040Z,41.20
2019-03-19T08:37:44.710Z,41.20
2019-03-19T08:40:20.982Z,41.20
2019-03-19T08:42:49.599Z,41.30
2019-03-19T08:45:22.838Z,41.20
2019-03-19T08:47:51.430Z,41.20
2019-03-19T08:50:21.349Z,41.20
2019-03-19T08:52:50.396Z,41.20
2019-03-19T08:55:19.002Z,41.20
2019-03-19T08:57:47.548Z,41.20
2019-03-19T09:00:20.482Z,41.20
2019-03-19T09:02:49.146Z,41.20
2019-03-19T09:05:17.818Z,41.20
2019-03-19T09:07:46.501Z,41.20
2019-03-19T09:10:19.699Z,41.20
2019-03-19T09:12:48.979Z,41.20
2019-03-19T09:15:25.502Z,41.30
2019-03-19T09:17:54.148Z,41.20
2019-03-19T09:20:22.793Z,41.40
2019-03-19T09:22:51.421Z,41.30
2019-03-19T09:25:20.138Z,41.30
2019-03-19T09:27:48.804Z,41.30
2019-03-19T09:30:22.442Z,41.30
2019-03-19T09:32:51.191Z,41.40
2019-03-19T09:35:19.909Z,41.30
2019-03-19T09:37:57.629Z,41.40
2019-03-19T09:40:19.930Z,41.30
2019-03-19T09:42:48.693Z,41.40
2019-03-19T09:45:17.916Z,41.30
2019-03-19T09:47:47.367Z,41.40
2019-03-19T09:50:23.677Z,41.30
2019-03-19T09:52:52.355Z,41.40
2019-03-19T09:55:21.064Z,41.40
2019-03-19T09:57:49.653Z,41.40
2019-03-19T10:00:20.429Z,41.40
2019-03-19T10:02:49.365Z,41.40
2019-03-19T10:05:18.165Z,41.40
2019-03-19T10:07:47.312Z,41.30
2019-03-19T10:10:22.980Z,41.30
2019-03-19T10:12:51.703Z,41.30
2019-03-19T10:15:20.442Z,41.40
2019-03-19T10:17:49.100Z,41.40
2019-03-19T10:20:20.743Z,41.50
2019-03-19T10:22:49.338Z,41.40
2019-03-19T10:25:18.376Z,41.30
2019-03-19T10:27:47.197Z,41.40
2019-03-19T10:30:17.817Z,41.40
2019-03-19T10:32:46.558Z,41.30
2019-03-19T10:35:15.502Z,41.40
2019-03-19T10:37:44.101Z,42.10
2019-03-19T10:40:14.207Z,41.40
2019-03-19T10:42:42.895Z,41.40
2019-03-19T10:45:17.475Z,41.40
2019-03-19T10:47:46.207Z,41.40
2019-03-19T10:50:25.951Z,41.50
2019-03-19T10:52:54.814Z,41.40
2019-03-19T10:55:23.574Z,41.40
2019-03-19T10:57:52.112Z,41.40
2019-03-19T11:00:22.231Z,41.40
2019-03-19T11:02:51.775Z,41.40
2019-03-19T11:05:21.678Z,41.30
2019-03-19T11:07:50.409Z,41.40
2019-03-19T11:10:19.726Z,41.40
2019-03-19T11:12:48.500Z,41.40
2019-03-19T11:15:22.258Z,41.40
2019-03-19T11:17:51.099Z,41.40
2019-03-19T11:20:20.415Z,41.40
2019-03-19T11:22:49.389Z,41.40
2019-03-19T11:25:28.735Z,41.40
2019-03-19T11:27:57.315Z,41.40
2019-03-19T11:30:27.237Z,41.40
2019-03-19T11:32:55.964Z,41.40
2019-03-19T11:35:25.371Z,41.40
2019-03-19T11:37:54.159Z,41.40
2019-03-19T11:40:25.478Z,41.40
2019-03-19T11:42:53.378Z,41.40
2019-03-19T11:45:24.173Z,41.40
2019-03-19T11:47:52.754Z,41.40
2019-03-19T11:50:25.275Z,41.40
2019-03-19T11:52:54.003Z,41.40
2019-03-19T11:55:22.654Z,41.40
2019-03-19T11:57:51.578Z,41.40
2019-03-19T12:00:27.528Z,41.40
2019-03-19T12:02:56.180Z,41.40
2019-03-19T12:05:24.738Z,41.40
2019-03-19T12:07:53.419Z,41.40
2019-03-19T12:10:22.102Z,41.50
2019-03-19T12:12:50.701Z,42.10
2019-03-19T12:15:19.272Z,41.40
2019-03-19T12:17:48.879Z,41.50
2019-03-19T12:20:20.539Z,42.00
2019-03-19T12:22:48.352Z,41.40
2019-03-19T12:25:16.987Z,41.40
2019-03-19T12:27:45.642Z,41.40
2019-03-19T12:30:22.273Z,41.40
2019-03-19T12:32:47.697Z,41.40
2019-03-19T12:35:18.017Z,42.00
2019-03-19T12:37:46.642Z,41.40
2019-03-19T12:40:23.130Z,41.40
2019-03-19T12:42:51.709Z,41.50
2019-03-19T12:45:21.514Z,41.40
2019-03-19T12:47:50.234Z,41.40
2019-03-19T12:50:26.692Z,41.40
2019-03-19T12:52:55.326Z,41.50
2019-03-19T12:55:23.927Z,41.50
2019-03-19T12:57:52.518Z,41.50
2019-03-19T13:00:34.244Z,41.50
2019-03-19T13:02:58.442Z,41.50
2019-03-19T13:05:27.045Z,41.50
2019-03-19T13:07:55.618Z,41.50
2019-03-19T13:10:24.965Z,41.40
2019-03-19T13:12:53.663Z,41.30
2019-03-19T13:15:22.642Z,41.50
2019-03-19T13:17:51.339Z,41.40
2019-03-19T13:20:23.833Z,41.40
2019-03-19T13:22:52.403Z,41.40
2019-03-19T13:25:24.980Z,41.40
2019-03-19T13:27:53.697Z,41.40
2019-03-19T13:30:30.409Z,41.40
2019-03-19T13:32:59.074Z,41.40
2019-03-19T13:35:27.746Z,42.10
2019-03-19T13:37:56.322Z,41.40
2019-03-19T13:40:24.977Z,41.40
2019-03-19T13:42:53.564Z,41.40
2019-03-19T13:45:23.229Z,41.50
2019-03-19T13:47:51.768Z,41.50
2019-03-19T13:50:21.182Z,41.50
2019-03-19T13:52:49.894Z,42.10
2019-03-19T13:55:19.617Z,41.50
2019-03-19T13:57:48.181Z,41.50
2019-03-19T14:00:17.618Z,41.50
2019-03-19T14:02:46.445Z,41.50
2019-03-19T14:05:15.666Z,41.60
2019-03-19T14:07:44.385Z,41.50
2019-03-19T14:10:15.494Z,41.50
2019-03-19T14:12:44.126Z,41.50
2019-03-19T14:15:16.912Z,41.50
2019-03-19T14:17:45.490Z,41.50
2019-03-19T14:20:17.266Z,41.60
2019-03-19T14:22:45.928Z,41.50
2019-03-19T14:25:16.316Z,41.50
2019-03-19T14:27:45.213Z,41.50
2019-03-19T14:30:24.865Z,41.50
2019-03-19T14:32:53.401Z,41.40
2019-03-19T14:35:22.115Z,41.40
2019-03-19T14:37:50.683Z,41.40
2019-03-19T14:40:21.594Z,41.50
2019-03-19T14:42:50.320Z,41.40
2019-03-19T14:45:19.152Z,41.50
2019-03-19T14:47:48.564Z,41.50
2019-03-19T14:50:19.284Z,41.50
2019-03-19T14:52:47.847Z,41.50
2019-03-19T14:55:16.588Z,41.50
2019-03-19T14:57:45.250Z,42.20
2019-03-19T15:00:18.449Z,41.60
2019-03-19T15:02:47.961Z,32.90
2019-03-19T15:05:16.786Z,31.30
2019-03-19T15:07:53.066Z,32.70
2019-03-19T15:12:56.129Z,33.70
2019-03-19T15:15:26.153Z,33.00
2019-03-19T15:17:54.828Z,30.70
2019-03-19T15:20:25.205Z,31.40
2019-03-19T15:22:53.755Z,32.90
2019-03-19T15:25:22.591Z,34.60
2019-03-19T15:27:51.095Z,35.10
2019-03-19T15:30:20.705Z,30.90
2019-03-19T15:32:49.449Z,28.90
2019-03-19T15:35:18.316Z,30.00
2019-03-19T15:37:46.891Z,31.50
2019-03-19T15:40:17.408Z,30.70
2019-03-19T15:42:46.046Z,27.50
2019-03-19T15:45:25.953Z,26.10
2019-03-19T15:47:54.610Z,26.70
2019-03-19T15:50:23.369Z,26.30
2019-03-19T15:52:51.932Z,25.70
2019-03-19T15:55:21.107Z,26.70
2019-03-19T15:58:09.138Z,26.70
2019-03-19T16:00:37.802Z,25.50
2019-03-19T16:03:21.936Z,25.00
2019-03-19T16:05:50.522Z,25.30
2019-03-19T16:08:19.440Z,25.40
2019-03-19T16:10:48.551Z,24.90
2019-03-19T16:13:18.068Z,24.90
2019-03-19T16:15:46.670Z,25.90
2019-03-19T16:18:15.241Z,26.30
2019-03-19T16:20:43.905Z,27.10
2019-03-19T16:23:12.482Z,26.50
2019-03-19T16:25:41.072Z,26.70
2019-03-19T16:28:09.631Z,26.20
2019-03-19T16:30:38.222Z,26.50
2019-03-19T16:33:06.853Z,26.50
2019-03-19T16:35:35.438Z,27.00
2019-03-19T16:38:04.082Z,27.20
2019-03-19T16:40:32.749Z,28.00
2019-03-19T16:43:01.385Z,28.70
2019-03-19T16:45:29.983Z,28.60
2019-03-19T16:47:58.633Z,28.50
2019-03-19T16:50:27.226Z,28.90
2019-03-19T16:52:55.794Z,30.40
2019-03-19T16:55:24.351Z,31.80
2019-03-19T16:57:52.946Z,34.40
2019-03-19T17:00:24.134Z,35.50
2019-03-19T17:02:52.729Z,37.30
2019-03-19T17:05:21.290Z,39.00
2019-03-19T17:07:49.937Z,40.20
2019-03-19T17:10:27.018Z,40.90
2019-03-19T17:12:55.603Z,41.80
2019-03-19T17:15:24.247Z,42.60
2019-03-19T17:17:52.903Z,42.60
2019-03-19T17:20:21.747Z,43.30
2019-03-19T17:22:50.341Z,44.00
2019-03-19T17:25:25.829Z,44.10
2019-03-19T17:27:54.534Z,44.20
2019-03-19T17:30:35.276Z,45.80
2019-03-19T17:33:03.867Z,47.80
2019-03-19T17:35:32.454Z,48.10
2019-03-19T17:38:01.036Z,49.80
2019-03-19T17:40:40.365Z,50.90
2019-03-19T17:42:59.870Z,51.80
2019-03-19T17:45:28.453Z,52.70
2019-03-19T17:47:57.101Z,52.80
2019-03-19T17:50:37.524Z,54.30
2019-03-19T17:53:06.761Z,54.60
2019-03-19T17:55:35.496Z,55.30
2019-03-19T17:58:04.274Z,56.10
2019-03-19T18:00:34.478Z,56.80
2019-03-19T18:03:03.069Z,57.70
2019-03-19T18:05:31.652Z,58.20
2019-03-19T18:08:00.317Z,59.10
2019-03-19T18:10:28.953Z,59.40
2019-03-19T18:12:57.548Z,59.80
2019-03-19T18:15:26.274Z,60.20
2019-03-19T18:17:54.933Z,61.80
2019-03-19T18:20:23.495Z,61.40
2019-03-19T18:22:52.094Z,61.60
2019-03-19T18:25:20.898Z,62.80
2019-03-19T18:27:49.635Z,63.40
2019-03-19T18:30:22.953Z,64.30
2019-03-19T18:32:51.619Z,64.70
2019-03-19T18:35:20.359Z,65.10
2019-03-19T18:37:48.980Z,65.60
2019-03-19T18:40:18.392Z,66.20
2019-03-19T18:42:47.175Z,66.30
2019-03-19T18:45:16.783Z,66.40
2019-03-19T18:47:45.648Z,66.50
2019-03-19T18:50:15.653Z,66.80
2019-03-19T18:52:44.267Z,66.90
2019-03-19T18:55:13.101Z,67.50
2019-03-19T18:57:41.863Z,67.70
2019-03-19T19:00:21.718Z,68.20
2019-03-19T19:02:51.178Z,68.40
2019-03-19T19:05:21.874Z,68.60
2019-03-19T19:07:50.605Z,69.10
2019-03-19T19:10:21.183Z,68.70
2019-03-19T19:12:49.903Z,70.40
2019-03-19T19:15:20.675Z,70.50
2019-03-19T19:17:49.360Z,70.30
2019-03-19T19:20:18.482Z,69.60
2019-03-19T19:22:47.174Z,71.90
2019-03-19T19:25:26.317Z,72.20
2019-03-19T19:27:55.003Z,73.00
2019-03-19T19:30:29.038Z,73.40
2019-03-19T19:33:02.010Z,72.90
2019-03-19T19:35:27.974Z,72.90
2019-03-19T19:37:56.562Z,72.90
2019-03-19T19:40:25.220Z,73.70
2019-03-19T19:42:53.898Z,73.60
2019-03-19T19:45:22.442Z,73.40
2019-03-19T19:47:51.047Z,73.40
2019-03-19T19:50:20.760Z,73.60
2019-03-19T19:55:10.013Z,99.90
2019-03-19T19:57:38.664Z,99.90
2019-03-19T20:00:18.186Z,79.00
2019-03-19T20:02:49.390Z,61.90
2019-03-19T20:05:18.176Z,54.20
2019-03-19T20:07:46.805Z,50.40
2019-03-19T20:10:22.803Z,47.80
2019-03-19T20:12:51.503Z,46.00
2019-03-19T20:15:20.320Z,44.80
2019-03-19T20:17:48.986Z,43.80
2019-03-19T20:20:25.595Z,43.20
2019-03-19T20:22:54.221Z,42.50
2019-03-19T20:25:22.817Z,42.00
2019-03-19T20:27:51.405Z,41.50
2019-03-19T20:30:24.991Z,41.20
2019-03-19T20:32:53.649Z,40.80
2019-03-19T20:35:22.342Z,40.60
2019-03-19T20:37:51.009Z,40.40
2019-03-19T20:40:19.762Z,40.10
2019-03-19T20:42:48.471Z,40.40
2019-03-19T20:45:19.486Z,39.80
2019-03-19T20:47:48.078Z,39.70
2019-03-19T20:50:25.194Z,39.70
2019-03-19T20:52:53.802Z,39.50
2019-03-19T20:55:22.398Z,39.50
2019-03-19T20:57:50.981Z,39.40
2019-03-19T21:00:19.573Z,39.40
2019-03-19T21:02:48.495Z,39.40
2019-03-19T21:05:17.238Z,39.40
2019-03-19T21:07:45.889Z,39.30
2019-03-19T21:10:24.670Z,39.30
2019-03-19T21:12:53.345Z,39.40
2019-03-19T21:15:26.461Z,39.30
2019-03-19T21:17:55.248Z,39.20
2019-03-19T21:20:24.180Z,39.20
2019-03-19T21:22:52.832Z,39.20
2019-03-19T21:25:21.576Z,39.20
2019-03-19T21:27:50.299Z,39.20
2019-03-19T21:30:23.835Z,39.20
2019-03-19T21:32:52.500Z,39.20
2019-03-19T21:35:25.928Z,39.20
2019-03-19T21:37:54.589Z,39.20
2019-03-19T21:40:23.149Z,39.10
2019-03-19T21:42:51.801Z,39.20
2019-03-19T21:45:23.798Z,39.10
2019-03-19T21:47:52.453Z,39.10
2019-03-19T21:50:24.890Z,39.10
2019-03-19T21:52:53.618Z,39.10
2019-03-19T21:55:22.302Z,39.10
2019-03-19T21:57:52.849Z,39.10
2019-03-19T22:00:25.250Z,39.10
2019-03-19T22:02:53.966Z,39.10
2019-03-19T22:05:22.624Z,39.10
2019-03-19T22:07:51.362Z,39.10
2019-03-19T22:10:21.117Z,39.10
2019-03-19T22:12:49.911Z,39.10
2019-03-19T22:15:20.354Z,39.80
2019-03-19T22:17:48.993Z,39.10
2019-03-19T22:20:18.425Z,39.10
2019-03-19T22:22:47.148Z,39.20
2019-03-19T22:25:16.264Z,39.20
2019-03-19T22:27:44.988Z,39.10
2019-03-19T22:30:19.393Z,39.10
2019-03-19T22:32:48.018Z,39.20
2019-03-19T22:35:16.947Z,39.10
2019-03-19T22:37:45.601Z,39.10
2019-03-19T22:40:16.209Z,39.10
2019-03-19T22:42:45.351Z,39.20
2019-03-19T22:45:15.316Z,39.10
2019-03-19T22:47:44.214Z,39.20
2019-03-19T22:50:17.657Z,39.80
2019-03-19T22:52:46.664Z,39.20
2019-03-19T22:55:16.021Z,39.20
2019-03-19T22:57:45.049Z,39.20
2019-03-19T23:00:31.562Z,39.10
2019-03-19T23:03:00.190Z,39.10
2019-03-19T23:05:28.851Z,39.10
2019-03-19T23:07:59.931Z,39.10
2019-03-19T23:10:28.671Z,39.10
2019-03-19T23:12:57.592Z,39.20
2019-03-19T23:15:26.202Z,39.20
2019-03-19T23:17:54.866Z,39.20
2019-03-19T23:20:23.588Z,39.20
2019-03-19T23:22:52.233Z,39.20
2019-03-19T23:25:21.218Z,39.20
2019-03-19T23:27:49.862Z,39.20
2019-03-19T23:30:20.002Z,39.20
2019-03-19T23:32:48.624Z,39.30
2019-03-19T23:35:17.292Z,39.30
2019-03-19T23:37:45.905Z,39.20
2019-03-19T23:40:16.559Z,39.30
2019-03-19T23:42:45.226Z,39.30
2019-03-19T23:45:14.256Z,39.30
2019-03-19T23:47:42.929Z,39.30
2019-03-19T23:50:13.907Z,39.40
2019-03-19T23:52:42.763Z,39.30
2019-03-19T23:55:11.478Z,39.30
2019-03-19T23:57:40.079Z,39.30
